sensor_id;sensor_type;location;lat;lon;timestamp;temperature;humidity
37910;DHT22;23741;49.446;8.754;2023-02-03T00:00:50;11.00;67.50
37910;DHT22;23741;49.446;8.754;2023-02-03T00:02:53;11.00;67.50
37910;DHT22;23741;49.446;8.754;2023-02-03T00:04:55;11.00;67.60
37910;DHT22;23741;49.446;8.754;2023-02-03T00:06:58;11.00;67.60
37910;DHT22;23741;49.446;8.754;2023-02-03T00:09:00;11.00;67.60
37910;DHT22;23741;49.446;8.754;2023-02-03T00:11:03;11.00;67.50
37910;DHT22;23741;49.446;8.754;2023-02-03T00:13:06;11.00;67.50
37910;DHT22;23741;49.446;8.754;2023-02-03T00:15:09;11.00;67.50
37910;DHT22;23741;49.446;8.754;2023-02-03T00:17:12;11.00;67.40
37910;DHT22;23741;49.446;8.754;2023-02-03T00:19:16;11.00;67.40
37910;DHT22;23741;49.446;8.754;2023-02-03T00:21:18;10.90;67.20
37910;DHT22;23741;49.446;8.754;2023-02-03T00:23:21;10.90;67.30
37910;DHT22;23741;49.446;8.754;2023-02-03T00:25:23;11.00;67.40
37910;DHT22;23741;49.446;8.754;2023-02-03T00:27:25;10.90;67.40
37910;DHT22;23741;49.446;8.754;2023-02-03T00:29:28;10.90;67.40
37910;DHT22;23741;49.446;8.754;2023-02-03T00:31:30;10.90;68.00
37910;DHT22;23741;49.446;8.754;2023-02-03T00:33:32;10.90;67.60
37910;DHT22;23741;49.446;8.754;2023-02-03T00:35:38;10.90;67.70
37910;DHT22;23741;49.446;8.754;2023-02-03T00:37:41;10.90;67.60
37910;DHT22;23741;49.446;8.754;2023-02-03T00:39:43;10.90;67.70
37910;DHT22;23741;49.446;8.754;2023-02-03T00:41:45;10.90;67.90
37910;DHT22;23741;49.446;8.754;2023-02-03T00:43:48;10.90;67.90
37910;DHT22;23741;49.446;8.754;2023-02-03T00:45:50;10.90;68.00
37910;DHT22;23741;49.446;8.754;2023-02-03T00:47:52;10.90;68.00
37910;DHT22;23741;49.446;8.754;2023-02-03T00:49:55;10.90;68.00
37910;DHT22;23741;49.446;8.754;2023-02-03T00:51:59;10.90;67.80
37910;DHT22;23741;49.446;8.754;2023-02-03T00:54:01;10.90;67.90
37910;DHT22;23741;49.446;8.754;2023-02-03T00:56:03;10.90;68.00
37910;DHT22;23741;49.446;8.754;2023-02-03T00:58:13;10.90;67.80
37910;DHT22;23741;49.446;8.754;2023-02-03T01:00:16;11.00;68.00
37910;DHT22;23741;49.446;8.754;2023-02-03T01:02:19;11.00;67.90
37910;DHT22;23741;49.446;8.754;2023-02-03T01:04:22;11.00;68.00
37910;DHT22;23741;49.446;8.754;2023-02-03T01:06:24;11.00;68.00
37910;DHT22;23741;49.446;8.754;2023-02-03T01:08:27;11.00;68.00
37910;DHT22;23741;49.446;8.754;2023-02-03T01:10:29;10.90;68.00
37910;DHT22;23741;49.446;8.754;2023-02-03T01:12:32;11.00;68.00
37910;DHT22;23741;49.446;8.754;2023-02-03T01:14:34;11.00;67.90
37910;DHT22;23741;49.446;8.754;2023-02-03T01:16:40;11.00;68.10
37910;DHT22;23741;49.446;8.754;2023-02-03T01:18:44;11.00;68.10
37910;DHT22;23741;49.446;8.754;2023-02-03T01:20:47;11.00;68.20
37910;DHT22;23741;49.446;8.754;2023-02-03T01:22:50;11.00;68.40
37910;DHT22;23741;49.446;8.754;2023-02-03T01:24:52;11.00;68.30
37910;DHT22;23741;49.446;8.754;2023-02-03T01:26:55;11.00;68.30
37910;DHT22;23741;49.446;8.754;2023-02-03T01:28:57;11.00;68.40
37910;DHT22;23741;49.446;8.754;2023-02-03T01:31:07;11.00;68.30
37910;DHT22;23741;49.446;8.754;2023-02-03T01:33:10;11.00;68.30
37910;DHT22;23741;49.446;8.754;2023-02-03T01:35:13;11.00;68.30
37910;DHT22;23741;49.446;8.754;2023-02-03T01:37:16;11.00;68.30
37910;DHT22;23741;49.446;8.754;2023-02-03T01:39:19;11.00;68.20
37910;DHT22;23741;49.446;8.754;2023-02-03T01:41:23;11.10;68.30
37910;DHT22;23741;49.446;8.754;2023-02-03T01:45:58;11.00;68.20
37910;DHT22;23741;49.446;8.754;2023-02-03T01:48:02;11.10;68.10
37910;DHT22;23741;49.446;8.754;2023-02-03T01:50:08;11.00;67.90
37910;DHT22;23741;49.446;8.754;2023-02-03T01:52:12;11.10;68.10
37910;DHT22;23741;49.446;8.754;2023-02-03T01:54:18;11.10;68.20
37910;DHT22;23741;49.446;8.754;2023-02-03T01:56:22;11.10;68.10
37910;DHT22;23741;49.446;8.754;2023-02-03T01:58:28;11.10;67.90
37910;DHT22;23741;49.446;8.754;2023-02-03T02:00:32;11.10;68.00
37910;DHT22;23741;49.446;8.754;2023-02-03T02:02:34;11.10;68.00
37910;DHT22;23741;49.446;8.754;2023-02-03T02:07:13;11.10;68.00
37910;DHT22;23741;49.446;8.754;2023-02-03T02:09:16;11.00;68.10
37910;DHT22;23741;49.446;8.754;2023-02-03T02:11:19;11.10;68.20
37910;DHT22;23741;49.446;8.754;2023-02-03T02:13:22;11.10;68.30
37910;DHT22;23741;49.446;8.754;2023-02-03T02:15:30;11.10;68.40
37910;DHT22;23741;49.446;8.754;2023-02-03T02:19:53;11.10;68.20
37910;DHT22;23741;49.446;8.754;2023-02-03T02:22:02;11.10;68.20
37910;DHT22;23741;49.446;8.754;2023-02-03T02:37:18;11.10;68.30
37910;DHT22;23741;49.446;8.754;2023-02-03T02:46:11;11.10;68.40
37910;DHT22;23741;49.446;8.754;2023-02-03T02:48:19;11.10;68.40
37910;DHT22;23741;49.446;8.754;2023-02-03T02:50:23;11.10;68.20
37910;DHT22;23741;49.446;8.754;2023-02-03T02:52:29;11.10;68.30
37910;DHT22;23741;49.446;8.754;2023-02-03T02:54:32;11.10;68.40
37910;DHT22;23741;49.446;8.754;2023-02-03T02:56:38;11.10;68.40
37910;DHT22;23741;49.446;8.754;2023-02-03T02:58:42;11.10;68.40
37910;DHT22;23741;49.446;8.754;2023-02-03T03:00:45;11.10;68.10
37910;DHT22;23741;49.446;8.754;2023-02-03T03:02:49;11.10;68.60
37910;DHT22;23741;49.446;8.754;2023-02-03T03:04:51;11.00;68.20
37910;DHT22;23741;49.446;8.754;2023-02-03T03:07:00;11.00;68.50
37910;DHT22;23741;49.446;8.754;2023-02-03T03:09:06;11.00;68.50
37910;DHT22;23741;49.446;8.754;2023-02-03T03:11:12;11.00;68.70
37910;DHT22;23741;49.446;8.754;2023-02-03T03:13:17;11.10;69.50
37910;DHT22;23741;49.446;8.754;2023-02-03T03:15:30;11.00;68.70
37910;DHT22;23741;49.446;8.754;2023-02-03T03:32:46;11.00;68.40
37910;DHT22;23741;49.446;8.754;2023-02-03T03:48:54;11.00;69.00
37910;DHT22;23741;49.446;8.754;2023-02-03T03:54:24;11.00;69.10
37910;DHT22;23741;49.446;8.754;2023-02-03T04:00:20;11.00;68.80
37910;DHT22;23741;49.446;8.754;2023-02-03T04:03:37;11.00;68.70
37910;DHT22;23741;49.446;8.754;2023-02-03T04:14:25;10.90;68.90
37910;DHT22;23741;49.446;8.754;2023-02-03T04:23:49;10.90;68.90
37910;DHT22;23741;49.446;8.754;2023-02-03T04:30:19;10.90;69.00
37910;DHT22;23741;49.446;8.754;2023-02-03T04:33:00;10.80;69.10
37910;DHT22;23741;49.446;8.754;2023-02-03T04:35:53;10.80;69.50
37910;DHT22;23741;49.446;8.754;2023-02-03T04:46:31;10.80;69.90
37910;DHT22;23741;49.446;8.754;2023-02-03T04:49:16;10.80;70.10
37910;DHT22;23741;49.446;8.754;2023-02-03T04:51:54;10.80;70.10
37910;DHT22;23741;49.446;8.754;2023-02-03T05:00:14;10.90;70.10
37910;DHT22;23741;49.446;8.754;2023-02-03T05:03:06;10.90;70.20
37910;DHT22;23741;49.446;8.754;2023-02-03T05:09:14;11.00;70.20
37910;DHT22;23741;49.446;8.754;2023-02-03T05:17:35;11.00;70.70
37910;DHT22;23741;49.446;8.754;2023-02-03T05:20:34;11.00;70.40
37910;DHT22;23741;49.446;8.754;2023-02-03T05:33:03;11.00;70.10
37910;DHT22;23741;49.446;8.754;2023-02-03T05:35:42;11.00;69.80
37910;DHT22;23741;49.446;8.754;2023-02-03T05:38:01;11.10;70.10
37910;DHT22;23741;49.446;8.754;2023-02-03T05:41:11;11.00;70.00
37910;DHT22;23741;49.446;8.754;2023-02-03T05:44:30;11.00;69.90
37910;DHT22;23741;49.446;8.754;2023-02-03T05:53:59;11.10;70.00
37910;DHT22;23741;49.446;8.754;2023-02-03T06:07:06;11.00;69.80
37910;DHT22;23741;49.446;8.754;2023-02-03T06:09:34;11.00;69.80
37910;DHT22;23741;49.446;8.754;2023-02-03T06:11:53;11.00;69.80
37910;DHT22;23741;49.446;8.754;2023-02-03T06:17:30;11.00;70.30
37910;DHT22;23741;49.446;8.754;2023-02-03T06:24:26;11.00;70.00
37910;DHT22;23741;49.446;8.754;2023-02-03T06:27:26;11.00;69.80
37910;DHT22;23741;49.446;8.754;2023-02-03T06:29:47;11.00;69.80
37910;DHT22;23741;49.446;8.754;2023-02-03T06:35:12;11.00;70.10
37910;DHT22;23741;49.446;8.754;2023-02-03T06:38:02;10.90;70.00
37910;DHT22;23741;49.446;8.754;2023-02-03T06:40:42;11.00;70.10
37910;DHT22;23741;49.446;8.754;2023-02-03T06:51:53;11.00;70.50
37910;DHT22;23741;49.446;8.754;2023-02-03T06:54:28;11.00;70.40
37910;DHT22;23741;49.446;8.754;2023-02-03T06:56:42;11.00;70.40
37910;DHT22;23741;49.446;8.754;2023-02-03T06:58:55;11.00;70.50
37910;DHT22;23741;49.446;8.754;2023-02-03T07:08:25;11.00;70.40
37910;DHT22;23741;49.446;8.754;2023-02-03T07:13:22;11.00;69.80
37910;DHT22;23741;49.446;8.754;2023-02-03T07:19:05;11.00;69.80
37910;DHT22;23741;49.446;8.754;2023-02-03T07:21:26;11.00;69.90
37910;DHT22;23741;49.446;8.754;2023-02-03T07:23:41;11.00;69.80
37910;DHT22;23741;49.446;8.754;2023-02-03T07:26:56;11.00;69.80
37910;DHT22;23741;49.446;8.754;2023-02-03T07:29:46;11.00;70.00
37910;DHT22;23741;49.446;8.754;2023-02-03T07:37:59;11.00;70.10
37910;DHT22;23741;49.446;8.754;2023-02-03T07:40:53;11.00;70.20
37910;DHT22;23741;49.446;8.754;2023-02-03T07:43:48;11.00;70.10
37910;DHT22;23741;49.446;8.754;2023-02-03T07:49:45;11.00;70.00
37910;DHT22;23741;49.446;8.754;2023-02-03T07:52:47;10.90;69.60
37910;DHT22;23741;49.446;8.754;2023-02-03T08:07:51;10.90;70.40
37910;DHT22;23741;49.446;8.754;2023-02-03T08:10:36;10.90;70.50
37910;DHT22;23741;49.446;8.754;2023-02-03T08:27:00;10.90;70.10
37910;DHT22;23741;49.446;8.754;2023-02-03T08:43:13;10.90;71.50
37910;DHT22;23741;49.446;8.754;2023-02-03T08:45:46;10.90;70.80
37910;DHT22;23741;49.446;8.754;2023-02-03T08:48:09;11.00;71.00
37910;DHT22;23741;49.446;8.754;2023-02-03T08:50:50;11.00;70.90
37910;DHT22;23741;49.446;8.754;2023-02-03T08:53:30;11.00;70.50
37910;DHT22;23741;49.446;8.754;2023-02-03T08:59:11;11.00;70.70
37910;DHT22;23741;49.446;8.754;2023-02-03T09:14:44;11.10;70.40
37910;DHT22;23741;49.446;8.754;2023-02-03T09:17:35;11.10;70.50
37910;DHT22;23741;49.446;8.754;2023-02-03T09:24:17;11.10;70.50
37910;DHT22;23741;49.446;8.754;2023-02-03T09:30:53;11.00;70.30
37910;DHT22;23741;49.446;8.754;2023-02-03T09:33:10;11.00;70.50
37910;DHT22;23741;49.446;8.754;2023-02-03T09:35:26;11.10;70.80
37910;DHT22;23741;49.446;8.754;2023-02-03T09:47:33;11.10;70.80
37910;DHT22;23741;49.446;8.754;2023-02-03T09:53:03;11.10;70.40
37910;DHT22;23741;49.446;8.754;2023-02-03T10:00:12;11.10;70.60
37910;DHT22;23741;49.446;8.754;2023-02-03T10:05:13;11.10;70.50
37910;DHT22;23741;49.446;8.754;2023-02-03T10:15:15;11.10;70.80
37910;DHT22;23741;49.446;8.754;2023-02-03T10:17:59;11.10;70.90
37910;DHT22;23741;49.446;8.754;2023-02-03T10:20:17;11.20;70.90
37910;DHT22;23741;49.446;8.754;2023-02-03T10:22:49;11.20;71.10
37910;DHT22;23741;49.446;8.754;2023-02-03T10:27:39;11.20;70.70
37910;DHT22;23741;49.446;8.754;2023-02-03T10:29:50;11.20;71.10
37910;DHT22;23741;49.446;8.754;2023-02-03T10:31:58;11.20;70.60
37910;DHT22;23741;49.446;8.754;2023-02-03T10:34:08;11.20;70.60
37910;DHT22;23741;49.446;8.754;2023-02-03T10:39:16;11.20;70.60
37910;DHT22;23741;49.446;8.754;2023-02-03T10:41:38;11.20;70.60
37910;DHT22;23741;49.446;8.754;2023-02-03T10:43:45;11.20;70.40
37910;DHT22;23741;49.446;8.754;2023-02-03T10:46:19;11.20;70.30
37910;DHT22;23741;49.446;8.754;2023-02-03T10:48:50;11.20;70.40
37910;DHT22;23741;49.446;8.754;2023-02-03T10:50:54;11.20;70.50
37910;DHT22;23741;49.446;8.754;2023-02-03T10:56:38;11.20;70.50
37910;DHT22;23741;49.446;8.754;2023-02-03T10:59:24;11.20;70.60
37910;DHT22;23741;49.446;8.754;2023-02-03T11:01:52;11.20;70.40
37910;DHT22;23741;49.446;8.754;2023-02-03T11:04:00;11.20;70.60
37910;DHT22;23741;49.446;8.754;2023-02-03T11:06:15;11.20;70.60
37910;DHT22;23741;49.446;8.754;2023-02-03T11:08:40;11.20;70.50
37910;DHT22;23741;49.446;8.754;2023-02-03T11:10:51;11.20;70.20
37910;DHT22;23741;49.446;8.754;2023-02-03T11:23:30;11.20;70.70
37910;DHT22;23741;49.446;8.754;2023-02-03T11:49:02;11.20;70.50
37910;DHT22;23741;49.446;8.754;2023-02-03T12:11:17;11.20;70.40
37910;DHT22;23741;49.446;8.754;2023-02-03T12:39:42;11.10;70.40
37910;DHT22;23741;49.446;8.754;2023-02-03T12:47:09;11.10;70.60
37910;DHT22;23741;49.446;8.754;2023-02-03T12:51:41;11.10;71.00
37910;DHT22;23741;49.446;8.754;2023-02-03T12:53:52;11.20;70.70
37910;DHT22;23741;49.446;8.754;2023-02-03T12:56:15;11.20;70.60
37910;DHT22;23741;49.446;8.754;2023-02-03T12:58:48;11.10;70.60
37910;DHT22;23741;49.446;8.754;2023-02-03T13:01:18;11.20;70.70
37910;DHT22;23741;49.446;8.754;2023-02-03T13:03:45;11.10;70.70
37910;DHT22;23741;49.446;8.754;2023-02-03T13:06:05;11.20;70.80
37910;DHT22;23741;49.446;8.754;2023-02-03T13:21:17;11.20;70.50
37910;DHT22;23741;49.446;8.754;2023-02-03T13:43:14;11.30;71.50
37910;DHT22;23741;49.446;8.754;2023-02-03T13:49:21;11.40;71.10
37910;DHT22;23741;49.446;8.754;2023-02-03T13:55:07;11.40;70.80
37910;DHT22;23741;49.446;8.754;2023-02-03T13:57:35;11.40;70.90
37910;DHT22;23741;49.446;8.754;2023-02-03T13:59:55;11.40;71.00
37910;DHT22;23741;49.446;8.754;2023-02-03T14:10:30;11.50;70.70
37910;DHT22;23741;49.446;8.754;2023-02-03T14:13:20;11.50;70.50
37910;DHT22;23741;49.446;8.754;2023-02-03T14:18:37;11.50;70.70
37910;DHT22;23741;49.446;8.754;2023-02-03T14:21:27;11.50;70.50
37910;DHT22;23741;49.446;8.754;2023-02-03T14:27:26;11.50;70.50
37910;DHT22;23741;49.446;8.754;2023-02-03T14:46:42;11.50;70.50
37910;DHT22;23741;49.446;8.754;2023-02-03T15:03:18;11.70;70.50
37910;DHT22;23741;49.446;8.754;2023-02-03T15:23:45;11.70;70.30
37910;DHT22;23741;49.446;8.754;2023-02-03T15:26:43;11.70;70.50
37910;DHT22;23741;49.446;8.754;2023-02-03T16:08:43;11.70;70.30
37910;DHT22;23741;49.446;8.754;2023-02-03T16:18:01;11.70;70.30
37910;DHT22;23741;49.446;8.754;2023-02-03T16:23:52;11.70;70.20
37910;DHT22;23741;49.446;8.754;2023-02-03T16:26:31;11.70;71.00
37910;DHT22;23741;49.446;8.754;2023-02-03T16:32:19;11.70;70.30
37910;DHT22;23741;49.446;8.754;2023-02-03T16:38:18;11.70;70.20
37910;DHT22;23741;49.446;8.754;2023-02-03T16:41:18;11.70;70.10
37910;DHT22;23741;49.446;8.754;2023-02-03T16:43:48;11.70;70.20
37910;DHT22;23741;49.446;8.754;2023-02-03T16:46:11;11.70;70.30
37910;DHT22;23741;49.446;8.754;2023-02-03T16:51:36;11.70;70.40
37910;DHT22;23741;49.446;8.754;2023-02-03T16:53:48;11.70;70.30
37910;DHT22;23741;49.446;8.754;2023-02-03T16:55:57;11.70;70.30
37910;DHT22;23741;49.446;8.754;2023-02-03T16:58:02;11.70;70.50
37910;DHT22;23741;49.446;8.754;2023-02-03T17:00:23;11.70;70.30
37910;DHT22;23741;49.446;8.754;2023-02-03T17:02:29;11.70;70.30
37910;DHT22;23741;49.446;8.754;2023-02-03T17:04:34;11.70;70.30
37910;DHT22;23741;49.446;8.754;2023-02-03T17:06:46;11.70;70.30
37910;DHT22;23741;49.446;8.754;2023-02-03T17:09:08;11.70;70.30
37910;DHT22;23741;49.446;8.754;2023-02-03T17:11:17;11.70;70.40
37910;DHT22;23741;49.446;8.754;2023-02-03T17:13:24;11.70;70.50
37910;DHT22;23741;49.446;8.754;2023-02-03T17:15:31;11.70;70.50
37910;DHT22;23741;49.446;8.754;2023-02-03T17:17:42;11.70;70.60
37910;DHT22;23741;49.446;8.754;2023-02-03T17:19:48;11.70;70.70
37910;DHT22;23741;49.446;8.754;2023-02-03T17:21:51;11.70;70.30
37910;DHT22;23741;49.446;8.754;2023-02-03T17:23:59;11.80;70.50
37910;DHT22;23741;49.446;8.754;2023-02-03T17:26:11;11.70;70.40
37910;DHT22;23741;49.446;8.754;2023-02-03T17:28:13;11.80;70.70
37910;DHT22;23741;49.446;8.754;2023-02-03T17:30:25;11.80;70.60
37910;DHT22;23741;49.446;8.754;2023-02-03T17:32:34;11.80;70.80
37910;DHT22;23741;49.446;8.754;2023-02-03T17:34:45;11.80;71.00
37910;DHT22;23741;49.446;8.754;2023-02-03T17:36:55;11.80;71.00
37910;DHT22;23741;49.446;8.754;2023-02-03T17:39:08;11.80;71.10
37910;DHT22;23741;49.446;8.754;2023-02-03T17:41:27;11.80;71.00
37910;DHT22;23741;49.446;8.754;2023-02-03T17:43:49;11.80;70.80
37910;DHT22;23741;49.446;8.754;2023-02-03T17:46:16;11.80;71.00
37910;DHT22;23741;49.446;8.754;2023-02-03T17:48:59;11.80;71.10
37910;DHT22;23741;49.446;8.754;2023-02-03T17:51:19;11.80;71.30
37910;DHT22;23741;49.446;8.754;2023-02-03T17:54:30;11.80;71.00
37910;DHT22;23741;49.446;8.754;2023-02-03T17:57:11;11.90;71.60
37910;DHT22;23741;49.446;8.754;2023-02-03T18:03:33;11.90;71.00
37910;DHT22;23741;49.446;8.754;2023-02-03T18:09:28;11.80;71.30
37910;DHT22;23741;49.446;8.754;2023-02-03T18:15:42;11.90;71.40
37910;DHT22;23741;49.446;8.754;2023-02-03T18:18:00;11.90;71.20
37910;DHT22;23741;49.446;8.754;2023-02-03T18:20:05;11.90;71.30
37910;DHT22;23741;49.446;8.754;2023-02-03T18:22:12;11.80;71.20
37910;DHT22;23741;49.446;8.754;2023-02-03T18:24:20;11.90;71.00
37910;DHT22;23741;49.446;8.754;2023-02-03T18:26:56;11.80;70.90
37910;DHT22;23741;49.446;8.754;2023-02-03T18:29:09;11.80;70.90
37910;DHT22;23741;49.446;8.754;2023-02-03T18:31:33;11.80;71.00
37910;DHT22;23741;49.446;8.754;2023-02-03T18:33:51;11.90;71.10
37910;DHT22;23741;49.446;8.754;2023-02-03T18:36:01;11.80;71.30
37910;DHT22;23741;49.446;8.754;2023-02-03T18:38:13;11.80;71.40
37910;DHT22;23741;49.446;8.754;2023-02-03T18:40:31;11.80;71.30
37910;DHT22;23741;49.446;8.754;2023-02-03T18:42:46;11.90;72.20
37910;DHT22;23741;49.446;8.754;2023-02-03T18:44:54;11.90;71.30
37910;DHT22;23741;49.446;8.754;2023-02-03T18:47:11;11.80;71.30
37910;DHT22;23741;49.446;8.754;2023-02-03T18:49:18;11.90;71.10
37910;DHT22;23741;49.446;8.754;2023-02-03T18:51:23;11.90;71.10
37910;DHT22;23741;49.446;8.754;2023-02-03T18:53:30;11.90;71.20
37910;DHT22;23741;49.446;8.754;2023-02-03T18:55:45;11.90;71.20
37910;DHT22;23741;49.446;8.754;2023-02-03T18:57:56;11.90;71.30
37910;DHT22;23741;49.446;8.754;2023-02-03T19:00:04;11.90;71.30
37910;DHT22;23741;49.446;8.754;2023-02-03T19:02:19;11.90;71.40
37910;DHT22;23741;49.446;8.754;2023-02-03T19:04:25;11.90;71.50
37910;DHT22;23741;49.446;8.754;2023-02-03T19:06:56;11.90;71.70
37910;DHT22;23741;49.446;8.754;2023-02-03T19:09:00;11.90;71.50
37910;DHT22;23741;49.446;8.754;2023-02-03T19:11:03;11.90;71.50
37910;DHT22;23741;49.446;8.754;2023-02-03T19:17:04;11.90;71.30
37910;DHT22;23741;49.446;8.754;2023-02-03T19:19:52;11.90;71.30
37910;DHT22;23741;49.446;8.754;2023-02-03T19:22:06;11.90;71.40
37910;DHT22;23741;49.446;8.754;2023-02-03T19:24:23;11.90;71.50
37910;DHT22;23741;49.446;8.754;2023-02-03T19:26:57;12.00;71.80
37910;DHT22;23741;49.446;8.754;2023-02-03T19:29:03;12.00;71.70
37910;DHT22;23741;49.446;8.754;2023-02-03T19:34:39;12.00;71.60
37910;DHT22;23741;49.446;8.754;2023-02-03T19:36:56;12.00;71.50
37910;DHT22;23741;49.446;8.754;2023-02-03T19:39:12;12.10;71.60
37910;DHT22;23741;49.446;8.754;2023-02-03T19:41:35;12.00;71.30
37910;DHT22;23741;49.446;8.754;2023-02-03T19:43:51;12.00;71.40
37910;DHT22;23741;49.446;8.754;2023-02-03T19:45:57;12.00;71.50
37910;DHT22;23741;49.446;8.754;2023-02-03T19:48:04;12.10;71.40
37910;DHT22;23741;49.446;8.754;2023-02-03T19:50:09;12.10;71.30
37910;DHT22;23741;49.446;8.754;2023-02-03T19:52:17;12.10;71.10
37910;DHT22;23741;49.446;8.754;2023-02-03T19:54:29;12.10;71.00
37910;DHT22;23741;49.446;8.754;2023-02-03T19:56:48;12.10;71.10
37910;DHT22;23741;49.446;8.754;2023-02-03T19:58:59;12.10;71.20
37910;DHT22;23741;49.446;8.754;2023-02-03T20:01:16;12.10;71.40
37910;DHT22;23741;49.446;8.754;2023-02-03T20:03:40;12.10;71.20
37910;DHT22;23741;49.446;8.754;2023-02-03T20:06:17;12.10;71.20
37910;DHT22;23741;49.446;8.754;2023-02-03T20:08:34;12.00;71.30
37910;DHT22;23741;49.446;8.754;2023-02-03T20:10:46;12.10;71.40
37910;DHT22;23741;49.446;8.754;2023-02-03T20:13:25;12.00;71.30
37910;DHT22;23741;49.446;8.754;2023-02-03T20:15:34;12.00;71.50
37910;DHT22;23741;49.446;8.754;2023-02-03T20:17:45;12.10;71.10
37910;DHT22;23741;49.446;8.754;2023-02-03T20:20:18;12.10;71.00
37910;DHT22;23741;49.446;8.754;2023-02-03T20:22:30;12.10;71.00
37910;DHT22;23741;49.446;8.754;2023-02-03T20:24:49;12.10;71.00
37910;DHT22;23741;49.446;8.754;2023-02-03T20:26:57;12.10;71.20
37910;DHT22;23741;49.446;8.754;2023-02-03T20:29:01;12.00;71.30
37910;DHT22;23741;49.446;8.754;2023-02-03T20:31:09;12.00;71.40
37910;DHT22;23741;49.446;8.754;2023-02-03T20:33:22;12.00;71.20
37910;DHT22;23741;49.446;8.754;2023-02-03T20:35:31;12.10;71.20
37910;DHT22;23741;49.446;8.754;2023-02-03T20:37:48;12.10;71.00
37910;DHT22;23741;49.446;8.754;2023-02-03T20:39:52;12.10;71.10
37910;DHT22;23741;49.446;8.754;2023-02-03T20:42:00;12.10;71.10
37910;DHT22;23741;49.446;8.754;2023-02-03T20:44:16;12.00;72.00
37910;DHT22;23741;49.446;8.754;2023-02-03T20:49:25;12.10;71.60
37910;DHT22;23741;49.446;8.754;2023-02-03T20:51:54;12.10;71.60
37910;DHT22;23741;49.446;8.754;2023-02-03T20:54:20;12.10;71.60
37910;DHT22;23741;49.446;8.754;2023-02-03T20:59:23;12.10;71.60
37910;DHT22;23741;49.446;8.754;2023-02-03T21:01:44;12.00;71.70
37910;DHT22;23741;49.446;8.754;2023-02-03T21:03:47;12.10;71.70
37910;DHT22;23741;49.446;8.754;2023-02-03T21:06:16;12.10;71.90
37910;DHT22;23741;49.446;8.754;2023-02-03T21:08:30;12.20;71.80
37910;DHT22;23741;49.446;8.754;2023-02-03T21:10:37;12.10;71.80
37910;DHT22;23741;49.446;8.754;2023-02-03T21:12:56;12.10;71.70
37910;DHT22;23741;49.446;8.754;2023-02-03T21:18:15;12.10;71.80
37910;DHT22;23741;49.446;8.754;2023-02-03T21:20:58;12.20;72.00
37910;DHT22;23741;49.446;8.754;2023-02-03T21:27:17;12.20;72.00
37910;DHT22;23741;49.446;8.754;2023-02-03T21:37:15;12.20;71.80
37910;DHT22;23741;49.446;8.754;2023-02-03T21:43:09;12.20;71.90
37910;DHT22;23741;49.446;8.754;2023-02-03T22:02:58;12.20;72.00
37910;DHT22;23741;49.446;8.754;2023-02-03T22:09:04;12.20;72.00
37910;DHT22;23741;49.446;8.754;2023-02-03T22:11:23;12.30;72.00
37910;DHT22;23741;49.446;8.754;2023-02-03T22:16:21;12.20;71.90
37910;DHT22;23741;49.446;8.754;2023-02-03T22:18:34;12.20;71.70
37910;DHT22;23741;49.446;8.754;2023-02-03T22:20:48;12.30;71.80
37910;DHT22;23741;49.446;8.754;2023-02-03T22:23:07;12.30;71.70
37910;DHT22;23741;49.446;8.754;2023-02-03T22:25:46;12.30;71.70
37910;DHT22;23741;49.446;8.754;2023-02-03T22:27:58;12.30;71.60
37910;DHT22;23741;49.446;8.754;2023-02-03T22:30:28;12.30;71.70
37910;DHT22;23741;49.446;8.754;2023-02-03T22:32:50;12.20;71.70
37910;DHT22;23741;49.446;8.754;2023-02-03T22:35:38;12.30;71.60
37910;DHT22;23741;49.446;8.754;2023-02-03T22:37:58;12.30;71.70
37910;DHT22;23741;49.446;8.754;2023-02-03T22:40:35;12.30;71.80
37910;DHT22;23741;49.446;8.754;2023-02-03T22:43:04;12.30;71.90
37910;DHT22;23741;49.446;8.754;2023-02-03T22:45:13;12.30;72.10
37910;DHT22;23741;49.446;8.754;2023-02-03T22:47:29;12.30;71.90
37910;DHT22;23741;49.446;8.754;2023-02-03T22:49:59;12.30;71.70
37910;DHT22;23741;49.446;8.754;2023-02-03T22:52:13;12.30;71.40
37910;DHT22;23741;49.446;8.754;2023-02-03T22:54:22;12.20;71.20
37910;DHT22;23741;49.446;8.754;2023-02-03T22:59:07;12.30;71.40
37910;DHT22;23741;49.446;8.754;2023-02-03T23:01:16;12.30;71.50
37910;DHT22;23741;49.446;8.754;2023-02-03T23:03:19;12.30;71.60
37910;DHT22;23741;49.446;8.754;2023-02-03T23:05:30;12.30;71.70
37910;DHT22;23741;49.446;8.754;2023-02-03T23:07:39;12.20;71.70
37910;DHT22;23741;49.446;8.754;2023-02-03T23:09:52;12.20;71.80
37910;DHT22;23741;49.446;8.754;2023-02-03T23:12:01;12.20;71.70
37910;DHT22;23741;49.446;8.754;2023-02-03T23:14:21;12.30;71.70
37910;DHT22;23741;49.446;8.754;2023-02-03T23:16:53;12.30;71.70
37910;DHT22;23741;49.446;8.754;2023-02-03T23:18:56;12.30;71.80
37910;DHT22;23741;49.446;8.754;2023-02-03T23:20:58;12.30;71.80
37910;DHT22;23741;49.446;8.754;2023-02-03T23:32:53;12.30;71.50
37910;DHT22;23741;49.446;8.754;2023-02-03T23:34:57;12.30;71.60
37910;DHT22;23741;49.446;8.754;2023-02-03T23:37:23;12.30;71.60
37910;DHT22;23741;49.446;8.754;2023-02-03T23:39:27;12.30;71.70
37910;DHT22;23741;49.446;8.754;2023-02-03T23:41:29;12.30;71.70
37910;DHT22;23741;49.446;8.754;2023-02-03T23:43:31;12.30;71.70
37910;DHT22;23741;49.446;8.754;2023-02-03T23:45:33;12.30;71.70
37910;DHT22;23741;49.446;8.754;2023-02-03T23:47:34;12.30;71.80
37910;DHT22;23741;49.446;8.754;2023-02-03T23:49:36;12.30;71.70
37910;DHT22;23741;49.446;8.754;2023-02-03T23:51:38;12.30;71.70
37910;DHT22;23741;49.446;8.754;2023-02-03T23:53:40;12.40;71.70
37910;DHT22;23741;49.446;8.754;2023-02-03T23:55:41;12.30;71.60
37910;DHT22;23741;49.446;8.754;2023-02-03T23:57:43;12.40;71.70
37910;DHT22;23741;49.446;8.754;2023-02-03T23:59:45;12.30;71.60
